Time;durP1;ratioP1;P1;durP2;ratioP2;P2;SDS_P1;SDS_P2;PMS_P1;PMS_P2;Temp;Humidity;BMP_temperature;BMP_pressure;BME280_temperature;BME280_humidity;BME280_pressure;Samples;Min_cycle;Max_cycle;Signal;HPM_P1;HPM_P2
2023/09/08 00:02:48;;;;;;;10.52;9.43;;;24.90;86.20;;;;;;10490399;28;20497;-66
2023/09/08 00:07:49;;;;;;;11.85;10.18;;;24.90;86.20;;;;;;10493137;28;20400;-67
2023/09/08 00:12:50;;;;;;;11.47;9.90;;;24.90;86.30;;;;;;10494925;28;20403;-66
2023/09/08 00:17:50;;;;;;;10.80;9.70;;;24.80;86.20;;;;;;10484762;28;20437;-66
2023/09/08 00:22:51;;;;;;;10.50;9.40;;;24.80;86.30;;;;;;10495847;28;20511;-67
2023/09/08 00:27:51;;;;;;;10.70;9.60;;;24.70;86.20;;;;;;10486783;28;20687;-66
2023/09/08 00:32:52;;;;;;;11.27;9.87;;;24.70;86.30;;;;;;10495425;28;20923;-68
2023/09/08 00:37:52;;;;;;;10.50;9.40;;;24.70;86.30;;;;;;10490087;28;20638;-67
2023/09/08 00:42:53;;;;;;;11.82;9.98;;;24.70;86.40;;;;;;10489058;28;20401;-66
2023/09/08 00:47:54;;;;;;;12.02;10.38;;;24.60;86.40;;;;;;10500085;28;20895;-67
2023/09/08 00:52:54;;;;;;;12.03;10.47;;;24.60;86.40;;;;;;10495546;28;20530;-67
2023/09/08 00:57:55;;;;;;;11.07;9.90;;;24.50;86.40;;;;;;10495150;28;20407;-67
2023/09/08 01:02:56;;;;;;;13.43;10.97;;;24.50;86.40;;;;;;10497603;28;20607;-67
2023/09/08 01:07:59;;;;;;;12.82;10.07;;;24.50;86.40;;;;;;10497593;28;20942;-67
2023/09/08 01:12:59;;;;;;;11.30;9.68;;;24.40;86.40;;;;;;10486819;28;20403;-67
2023/09/08 01:18:00;;;;;;;12.02;10.15;;;24.40;86.40;;;;;;10480794;28;20462;-67
2023/09/08 01:23:21;;;;;;;11.50;10.10;;;24.40;86.40;;;;;;10493124;28;20492;-67
2023/09/08 01:28:23;;;;;;;10.13;9.13;;;24.40;86.40;;;;;;10488185;28;20918;-67
2023/09/08 01:33:25;;;;;;;11.90;10.20;;;24.30;86.40;;;;;;10477898;28;20423;-66
2023/09/08 01:38:25;;;;;;;11.30;9.38;;;24.30;86.40;;;;;;10485647;28;20406;-67
2023/09/08 01:43:26;;;;;;;10.38;9.27;;;24.30;86.40;;;;;;10494474;28;20400;-66
2023/09/08 01:48:27;;;;;;;11.10;9.67;;;24.20;86.30;;;;;;10489991;28;20429;-68
2023/09/08 01:53:27;;;;;;;11.27;9.50;;;24.20;86.30;;;;;;10490054;28;20402;-66
2023/09/08 01:58:30;;;;;;;11.50;9.43;;;24.20;86.30;;;;;;10484116;28;20413;-67
2023/09/08 02:03:34;;;;;;;10.48;9.00;;;24.10;86.30;;;;;;10485648;28;20418;-67
2023/09/08 02:08:35;;;;;;;10.25;9.23;;;24.10;86.30;;;;;;10489703;28;20960;-67
2023/09/08 02:13:36;;;;;;;10.13;8.70;;;24.10;86.40;;;;;;10485512;28;20490;-66
2023/09/08 02:18:37;;;;;;;9.82;8.65;;;24.00;86.30;;;;;;10487999;28;20437;-67
2023/09/08 02:23:37;;;;;;;10.63;8.90;;;24.00;86.30;;;;;;10486073;28;20412;-67
2023/09/08 02:28:38;;;;;;;11.27;8.87;;;24.00;86.30;;;;;;10491007;28;20398;-66
2023/09/08 02:33:39;;;;;;;9.93;8.93;;;24.00;86.30;;;;;;10483465;28;20439;-67
2023/09/08 02:38:39;;;;;;;10.75;9.20;;;23.90;86.20;;;;;;10481625;28;20410;-68
2023/09/08 02:43:40;;;;;;;10.73;9.10;;;23.80;86.20;;;;;;10473539;28;20490;-67
2023/09/08 02:48:41;;;;;;;9.90;8.90;;;23.80;86.20;;;;;;10488267;28;20381;-67
2023/09/08 02:53:41;;;;;;;10.37;9.07;;;23.80;86.20;;;;;;10486081;28;20939;-67
2023/09/08 02:58:42;;;;;;;10.20;9.00;;;23.80;86.20;;;;;;10489373;28;20530;-67
2023/09/08 03:03:43;;;;;;;11.30;8.87;;;23.80;86.30;;;;;;10479892;28;20398;-66
2023/09/08 03:08:44;;;;;;;9.50;8.50;;;23.70;86.20;;;;;;10488168;28;20390;-67
2023/09/08 03:13:44;;;;;;;10.13;8.67;;;23.70;86.20;;;;;;10476223;28;20391;-67
2023/09/08 03:18:45;;;;;;;10.07;8.70;;;23.70;86.20;;;;;;10478924;28;20543;-67
2023/09/08 03:23:46;;;;;;;10.57;9.10;;;23.60;86.20;;;;;;10486823;28;20550;-66
2023/09/08 03:28:46;;;;;;;10.43;8.95;;;23.60;86.20;;;;;;10485676;28;20840;-67
2023/09/08 03:33:47;;;;;;;10.75;9.32;;;23.60;86.20;;;;;;10479276;28;20441;-67
2023/09/08 03:38:47;;;;;;;10.83;9.10;;;23.50;86.20;;;;;;10482668;28;20876;-67
2023/09/08 03:43:49;;;;;;;10.03;9.03;;;23.50;86.20;;;;;;10489596;28;20899;-67
2023/09/08 03:48:49;;;;;;;11.02;9.25;;;23.60;86.30;;;;;;10503140;28;20738;-67
2023/09/08 03:53:51;;;;;;;12.20;9.07;;;23.40;86.20;;;;;;10485676;28;20403;-66
2023/09/08 03:58:51;;;;;;;11.07;9.83;;;23.50;86.20;;;;;;10487993;28;20414;-67
2023/09/08 04:03:52;;;;;;;11.80;9.90;;;23.40;86.20;;;;;;10486702;28;20411;-67
2023/09/08 04:08:53;;;;;;;10.57;9.23;;;23.40;86.20;;;;;;10498075;28;20398;-66
2023/09/08 04:13:53;;;;;;;11.43;9.65;;;23.40;86.20;;;;;;10497282;28;20417;-67
2023/09/08 04:18:54;;;;;;;10.80;9.40;;;23.30;86.20;;;;;;10484884;28;20396;-67
2023/09/08 04:23:54;;;;;;;10.47;9.10;;;23.30;86.20;;;;;;10487194;28;20485;-65
2023/09/08 04:28:55;;;;;;;9.80;8.80;;;23.30;86.20;;;;;;10497964;28;20401;-67
2023/09/08 04:33:56;;;;;;;10.63;9.13;;;23.20;86.10;;;;;;10494443;28;20775;-68
2023/09/08 04:38:56;;;;;;;10.90;9.70;;;23.20;86.10;;;;;;10494537;28;20398;-67
2023/09/08 04:43:58;;;;;;;10.30;9.20;;;23.20;86.20;;;;;;10483359;28;21063;-69
2023/09/08 04:48:58;;;;;;;10.02;8.85;;;23.20;86.20;;;;;;10502633;28;20394;-69
2023/09/08 04:53:59;;;;;;;10.73;9.60;;;23.10;86.10;;;;;;10498147;28;20402;-73
2023/09/08 04:59:00;;;;;;;11.88;9.48;;;23.10;86.10;;;;;;10495138;28;20767;-68
2023/09/08 05:04:01;;;;;;;12.40;9.57;;;23.10;86.10;;;;;;10492181;28;20428;-69
2023/09/08 05:09:02;;;;;;;11.02;9.38;;;23.00;86.00;;;;;;10490419;28;20571;-69
2023/09/08 05:14:03;;;;;;;14.55;9.77;;;23.00;86.10;;;;;;10505943;28;20403;-70
2023/09/08 05:19:04;;;;;;;11.20;9.18;;;23.00;86.10;;;;;;10487617;28;20415;-68
2023/09/08 05:24:05;;;;;;;10.93;9.30;;;23.00;86.10;;;;;;10488064;28;20496;-69
2023/09/08 05:29:06;;;;;;;10.50;9.07;;;23.00;86.10;;;;;;10490960;28;20478;-69
2023/09/08 05:34:06;;;;;;;9.93;8.90;;;22.90;86.10;;;;;;10490826;28;20410;-69
2023/09/08 05:39:07;;;;;;;10.73;8.90;;;22.90;86.10;;;;;;10483013;28;20509;-69
2023/09/08 05:44:08;;;;;;;10.40;9.23;;;22.90;86.10;;;;;;10484778;28;20813;-69
2023/09/08 05:49:12;;;;;;;10.50;9.20;;;22.90;86.20;;;;;;10484694;28;20779;-69
2023/09/08 05:54:13;;;;;;;10.30;8.83;;;22.90;86.20;;;;;;10490136;28;20569;-69
2023/09/08 05:59:13;;;;;;;11.23;9.17;;;22.80;86.10;;;;;;10494288;28;20396;-69
2023/09/08 06:04:14;;;;;;;9.93;8.50;;;22.80;86.20;;;;;;10475929;28;20401;-69
2023/09/08 06:09:16;;;;;;;10.47;8.93;;;22.80;86.20;;;;;;10483087;28;20767;-68
2023/09/08 06:14:17;;;;;;;9.97;8.37;;;22.80;86.20;;;;;;10482445;28;20473;-68
2023/09/08 06:19:17;;;;;;;9.70;8.70;;;22.80;86.30;;;;;;10482228;28;20411;-69
2023/09/08 06:24:18;;;;;;;10.67;8.30;;;22.80;86.30;;;;;;10487677;28;20400;-69
2023/09/08 06:29:18;;;;;;;9.53;8.50;;;22.80;86.40;;;;;;10487611;28;20411;-68
2023/09/08 06:34:22;;;;;;;11.27;8.37;;;22.80;86.40;;;;;;10483402;28;20506;-67
2023/09/08 06:39:25;;;;;;;9.47;8.17;;;22.70;86.30;;;;;;10489175;28;20446;-69
2023/09/08 06:44:26;;;;;;;9.25;8.30;;;22.70;86.30;;;;;;10488029;28;20416;-68
2023/09/08 06:49:26;;;;;;;10.73;8.60;;;22.70;86.50;;;;;;10489031;28;20490;-68
2023/09/08 06:54:27;;;;;;;11.00;9.50;;;22.70;86.90;;;;;;10488586;28;20461;-69
2023/09/08 06:59:27;;;;;;;12.55;8.90;;;22.70;87.00;;;;;;10489356;28;20400;-68
2023/09/08 07:04:28;;;;;;;10.40;8.55;;;22.80;87.20;;;;;;10492395;28;20758;-69
2023/09/08 07:09:29;;;;;;;10.43;8.67;;;22.80;87.30;;;;;;10493418;28;20399;-69
2023/09/08 07:14:30;;;;;;;10.47;8.47;;;22.80;87.10;;;;;;10477467;28;21177;-69
2023/09/08 07:19:31;;;;;;;10.48;8.48;;;22.90;87.10;;;;;;10499282;28;20399;-69
2023/09/08 07:24:31;;;;;;;10.70;8.32;;;22.90;87.10;;;;;;10494889;28;20411;-69
2023/09/08 07:29:32;;;;;;;9.57;8.57;;;22.90;87.10;;;;;;10496921;28;20478;-70
2023/09/08 07:34:33;;;;;;;9.68;8.50;;;22.90;87.20;;;;;;10492590;28;20411;-70
2023/09/08 07:39:35;;;;;;;9.37;8.10;;;23.00;87.50;;;;;;10496296;28;20496;-69
2023/09/08 07:44:35;;;;;;;10.45;8.25;;;23.00;87.50;;;;;;10493169;28;20417;-69
2023/09/08 07:49:36;;;;;;;9.10;7.73;;;23.00;87.60;;;;;;10494844;28;20397;-69
2023/09/08 07:54:37;;;;;;;8.93;7.97;;;23.10;87.60;;;;;;10495561;28;20730;-69
2023/09/08 07:59:37;;;;;;;9.85;8.18;;;23.10;87.70;;;;;;10492717;28;20531;-69
2023/09/08 08:04:38;;;;;;;10.13;8.02;;;23.20;87.70;;;;;;10489140;28;20514;-69
2023/09/08 08:09:39;;;;;;;8.53;7.67;;;23.20;87.80;;;;;;10491019;28;20737;-69
2023/09/08 08:14:39;;;;;;;8.53;7.60;;;23.20;87.70;;;;;;10492980;28;20424;-69
2023/09/08 08:19:40;;;;;;;9.70;7.93;;;23.20;88.00;;;;;;10490013;28;20401;-70
2023/09/08 08:24:40;;;;;;;9.07;8.03;;;23.20;87.80;;;;;;10489166;28;20596;-69
2023/09/08 08:29:41;;;;;;;9.15;8.10;;;23.30;88.00;;;;;;10492571;28;20475;-70
2023/09/08 08:34:42;;;;;;;10.18;8.30;;;23.30;87.90;;;;;;10486150;28;20910;-70
2023/09/08 08:39:42;;;;;;;8.90;7.73;;;23.30;88.50;;;;;;10479250;28;20407;-69
2023/09/08 08:44:44;;;;;;;8.80;7.90;;;23.30;87.90;;;;;;10483715;28;20407;-70
2023/09/08 08:49:46;;;;;;;9.05;7.78;;;23.40;87.90;;;;;;10494485;28;21245;-70
2023/09/08 08:54:47;;;;;;;9.70;7.60;;;23.40;87.90;;;;;;10485848;28;20395;-70
2023/09/08 08:59:51;;;;;;;10.03;7.67;;;23.40;87.90;;;;;;10494921;28;20400;-70
2023/09/08 09:04:52;;;;;;;9.13;7.53;;;23.40;87.90;;;;;;10483445;28;20862;-69
2023/09/08 09:10:07;;;;;;;10.18;7.57;;;23.50;87.80;;;;;;10480562;28;20416;-70
2023/09/08 09:15:08;;;;;;;10.93;7.57;;;23.50;87.80;;;;;;10491344;28;20396;-70
2023/09/08 09:20:17;;;;;;;10.30;8.00;;;23.50;87.80;;;;;;10491945;28;20982;-70
2023/09/08 09:25:37;;;;;;;9.65;7.82;;;23.60;87.90;;;;;;10484216;28;20689;-70
2023/09/08 09:30:48;;;;;;;8.87;7.60;;;23.60;88.00;;;;;;10485561;28;20914;-70
2023/09/08 09:35:54;;;;;;;8.73;7.43;;;23.70;88.00;;;;;;10491153;28;20459;-70
2023/09/08 09:40:55;;;;;;;9.27;7.57;;;23.70;88.10;;;;;;10490990;28;20903;-70
2023/09/08 09:45:56;;;;;;;8.35;7.18;;;23.80;88.20;;;;;;10488482;28;20667;-70
2023/09/08 09:50:56;;;;;;;8.57;7.38;;;23.80;88.80;;;;;;10490253;28;20480;-70
2023/09/08 09:56:00;;;;;;;9.40;7.68;;;23.90;88.50;;;;;;10491529;28;20621;-70
2023/09/08 10:01:01;;;;;;;9.25;7.30;;;23.90;88.30;;;;;;10494944;28;20410;-70
2023/09/08 10:06:03;;;;;;;9.48;7.53;;;24.00;88.30;;;;;;10483421;28;20406;-70
2023/09/08 10:11:07;;;;;;;8.90;7.45;;;24.10;88.50;;;;;;10487865;28;20407;-70
2023/09/08 10:16:08;;;;;;;8.85;7.25;;;24.10;88.70;;;;;;10487026;28;20436;-69
2023/09/08 10:21:10;;;;;;;9.23;7.00;;;24.20;88.60;;;;;;10489633;28;20924;-70
2023/09/08 10:26:11;;;;;;;8.07;7.07;;;24.30;88.60;;;;;;10493995;28;20386;-71
2023/09/08 10:31:13;;;;;;;10.38;6.90;;;24.30;88.50;;;;;;10495723;28;20392;-72
2023/09/08 10:36:14;;;;;;;10.27;7.25;;;24.40;89.40;;;;;;10494473;28;20476;-70
2023/09/08 10:41:15;;;;;;;9.43;7.43;;;24.60;90.50;;;;;;10482126;28;20442;-70
2023/09/08 10:46:30;;;;;;;8.07;7.03;;;24.80;90.30;;;;;;10488702;28;20416;-71
2023/09/08 10:51:31;;;;;;;10.77;7.63;;;25.00;90.00;;;;;;10492044;28;20430;-71
2023/09/08 10:56:55;;;;;;;9.37;6.83;;;25.20;90.40;;;;;;10490824;28;20489;-71
2023/09/08 11:01:56;;;;;;;9.33;7.30;;;25.40;90.40;;;;;;10496038;28;20444;-72
2023/09/08 11:06:57;;;;;;;7.73;6.87;;;25.60;90.40;;;;;;10483929;28;20482;-71
2023/09/08 11:12:02;;;;;;;9.80;7.00;;;25.70;90.10;;;;;;10478702;28;20828;-71
2023/09/08 11:17:03;;;;;;;9.57;7.40;;;25.80;90.20;;;;;;10495012;28;20403;-70
2023/09/08 11:22:04;;;;;;;10.50;7.43;;;25.90;90.40;;;;;;10489767;28;20404;-71
2023/09/08 11:27:05;;;;;;;9.13;6.77;;;26.10;90.20;;;;;;10494065;28;20749;-70
2023/09/08 11:32:07;;;;;;;10.13;6.90;;;26.20;89.30;;;;;;10492774;28;21061;-70
2023/09/08 11:37:18;;;;;;;8.65;6.80;;;26.30;89.00;;;;;;10485978;28;20429;-70
2023/09/08 11:42:21;;;;;;;10.97;6.97;;;26.50;88.90;;;;;;10495656;28;20421;-70
2023/09/08 11:47:21;;;;;;;9.40;6.50;;;26.50;88.30;;;;;;10479006;28;20749;-70
2023/09/08 11:52:25;;;;;;;7.23;6.03;;;26.70;88.50;;;;;;10498377;28;20390;-69
2023/09/08 11:57:28;;;;;;;9.73;6.15;;;26.80;86.80;;;;;;10489291;28;20438;-70
2023/09/08 12:02:28;;;;;;;10.88;6.75;;;26.90;86.70;;;;;;10500774;28;20663;-71
2023/09/08 12:07:29;;;;;;;10.40;6.20;;;27.00;86.10;;;;;;10497543;28;20771;-70
2023/09/08 12:12:30;;;;;;;7.17;6.10;;;27.10;85.80;;;;;;10487541;28;20815;-71
2023/09/08 12:17:30;;;;;;;8.67;6.50;;;27.20;85.10;;;;;;10490866;28;20457;-72
2023/09/08 12:22:33;;;;;;;8.63;6.28;;;27.30;85.70;;;;;;10491844;28;20649;-71
2023/09/08 12:27:36;;;;;;;9.82;6.28;;;27.50;85.30;;;;;;10491472;28;20465;-71
2023/09/08 12:32:38;;;;;;;7.60;6.07;;;27.30;84.80;;;;;;10490554;28;20414;-71
2023/09/08 12:37:39;;;;;;;8.77;6.05;;;27.60;85.10;;;;;;10494837;28;20849;-71
2023/09/08 12:42:39;;;;;;;8.03;6.03;;;27.60;83.90;;;;;;10496053;28;20407;-71
2023/09/08 12:47:40;;;;;;;8.83;6.07;;;27.70;83.20;;;;;;10497890;28;20486;-71
2023/09/08 12:52:41;;;;;;;8.18;6.00;;;27.80;82.60;;;;;;10489653;28;20887;-72
2023/09/08 12:57:41;;;;;;;6.37;5.40;;;27.90;82.00;;;;;;10488505;28;20403;-72
2023/09/08 13:02:44;;;;;;;6.03;5.30;;;28.10;81.20;;;;;;10492406;28;20422;-73
2023/09/08 13:07:44;;;;;;;7.20;5.47;;;28.20;80.90;;;;;;10489048;28;20495;-72
2023/09/08 13:12:45;;;;;;;7.83;5.73;;;28.20;80.70;;;;;;10490089;28;20893;-73
2023/09/08 13:17:46;;;;;;;6.63;5.28;;;28.30;80.30;;;;;;10492154;28;20400;-73
2023/09/08 13:22:46;;;;;;;6.33;5.40;;;28.50;78.90;;;;;;10490504;28;20454;-73
2023/09/08 13:27:47;;;;;;;7.27;5.40;;;28.60;78.80;;;;;;10493237;28;20453;-73
2023/09/08 13:32:48;;;;;;;7.80;5.60;;;28.70;79.20;;;;;;10495361;28;20453;-72
2023/09/08 13:37:48;;;;;;;7.25;5.45;;;28.80;78.90;;;;;;10490150;28;20437;-73
2023/09/08 13:42:49;;;;;;;8.27;5.63;;;29.00;78.10;;;;;;10483573;28;20779;-73
2023/09/08 13:47:50;;;;;;;7.25;5.53;;;29.20;78.30;;;;;;10491576;28;20397;-72
2023/09/08 13:52:50;;;;;;;7.53;5.50;;;29.30;77.90;;;;;;10489993;28;20417;-72
2023/09/08 13:57:51;;;;;;;6.23;5.20;;;29.40;76.80;;;;;;10493396;28;20391;-72
2023/09/08 14:02:52;;;;;;;7.78;5.32;;;29.50;76.90;;;;;;10494250;28;20761;-73
2023/09/08 14:07:53;;;;;;;6.78;5.18;;;29.60;76.60;;;;;;10488743;28;20400;-73
2023/09/08 14:12:54;;;;;;;6.77;5.20;;;29.70;75.60;;;;;;10487354;28;20414;-73
2023/09/08 14:17:54;;;;;;;5.87;4.97;;;29.90;76.00;;;;;;10500730;28;20398;-73
2023/09/08 14:22:55;;;;;;;5.95;4.82;;;30.00;74.30;;;;;;10493750;28;20771;-73
2023/09/08 14:27:56;;;;;;;6.40;5.07;;;30.10;73.60;;;;;;10487731;28;20941;-73
2023/09/08 14:32:57;;;;;;;5.70;4.90;;;30.20;73.00;;;;;;10487593;28;20421;-73
2023/09/08 14:37:57;;;;;;;7.20;5.00;;;30.20;72.10;;;;;;10482642;28;20421;-73
2023/09/08 14:42:58;;;;;;;6.17;4.80;;;30.30;73.20;;;;;;10491288;28;20420;-73
2023/09/08 14:47:58;;;;;;;8.33;5.20;;;30.40;73.20;;;;;;10482227;28;20407;-73
2023/09/08 14:52:59;;;;;;;7.40;5.17;;;30.50;70.90;;;;;;10487598;28;20929;-73
2023/09/08 14:58:00;;;;;;;7.30;4.83;;;30.50;72.60;;;;;;10490179;28;20414;-73
2023/09/08 15:03:01;;;;;;;6.10;5.00;;;30.50;73.30;;;;;;10491340;28;20925;-73
2023/09/08 15:08:02;;;;;;;7.47;5.05;;;30.60;73.70;;;;;;10488511;28;20400;-72
2023/09/08 15:13:05;;;;;;;9.68;5.30;;;30.70;74.40;;;;;;10492069;28;20404;-73
2023/09/08 15:18:06;;;;;;;7.17;5.40;;;30.60;73.80;;;;;;10492501;28;20905;-73
2023/09/08 15:23:07;;;;;;;7.13;5.33;;;30.40;74.40;;;;;;10481281;28;20408;-73
2023/09/08 15:28:08;;;;;;;5.80;5.20;;;30.30;75.50;;;;;;10499148;28;20739;-72
2023/09/08 15:33:08;;;;;;;6.28;5.35;;;30.30;75.90;;;;;;10486191;28;20795;-72
2023/09/08 15:38:09;;;;;;;6.70;5.60;;;30.40;75.20;;;;;;10495832;28;20405;-72
2023/09/08 15:43:09;;;;;;;6.10;5.50;;;30.40;75.50;;;;;;10498246;28;20943;-72
2023/09/08 15:48:10;;;;;;;8.32;5.30;;;30.20;75.90;;;;;;10500617;28;20441;-72
2023/09/08 15:53:11;;;;;;;7.57;5.80;;;30.00;77.10;;;;;;10498627;28;20429;-72
2023/09/08 15:58:11;;;;;;;7.55;5.80;;;29.90;77.80;;;;;;10496463;28;20492;-74
2023/09/08 16:03:12;;;;;;;8.33;5.80;;;29.70;78.60;;;;;;10501479;28;20407;-72
2023/09/08 16:08:13;;;;;;;6.93;5.60;;;29.50;78.70;;;;;;10498871;28;20950;-72
2023/09/08 16:13:14;;;;;;;9.13;6.07;;;29.40;79.10;;;;;;10495581;28;20417;-71
2023/09/08 16:18:14;;;;;;;7.47;6.13;;;29.40;79.80;;;;;;10490301;28;20457;-73
2023/09/08 16:23:15;;;;;;;7.60;6.32;;;29.10;80.10;;;;;;10491849;28;20577;-74
2023/09/08 16:28:16;;;;;;;8.20;6.10;;;29.00;80.90;;;;;;10490450;28;20395;-71
2023/09/08 16:33:17;;;;;;;6.60;5.93;;;28.90;81.80;;;;;;10492105;28;20434;-74
2023/09/08 16:38:18;;;;;;;7.37;6.13;;;28.90;81.70;;;;;;10487932;28;20783;-74
2023/09/08 16:43:18;;;;;;;7.23;6.53;;;28.90;82.30;;;;;;10490362;28;20852;-73
2023/09/08 16:48:20;;;;;;;7.93;6.10;;;28.80;83.20;;;;;;10497740;28;20392;-73
2023/09/08 16:53:21;;;;;;;7.77;6.73;;;28.80;85.20;;;;;;10489575;28;20396;-74
2023/09/08 16:58:23;;;;;;;8.03;6.93;;;28.70;86.00;;;;;;10482644;28;20403;-75
2023/09/08 17:03:23;;;;;;;10.50;7.88;;;28.60;87.00;;;;;;10488199;28;20415;-74
2023/09/08 17:08:26;;;;;;;7.90;6.83;;;28.50;88.70;;;;;;10489635;28;20399;-74
2023/09/08 17:13:27;;;;;;;9.57;7.70;;;28.40;90.00;;;;;;10489707;28;20451;-74
2023/09/08 17:18:28;;;;;;;8.32;7.25;;;28.30;90.60;;;;;;10489238;28;20974;-74
2023/09/08 17:23:29;;;;;;;8.20;7.00;;;28.30;90.80;;;;;;10486524;28;20408;-75
2023/09/08 17:28:30;;;;;;;7.93;7.03;;;28.20;91.10;;;;;;10489000;28;20387;-74
2023/09/08 17:33:32;;;;;;;8.52;7.30;;;28.10;91.30;;;;;;10494361;28;20429;-75
2023/09/08 17:38:33;;;;;;;9.87;7.80;;;28.00;91.50;;;;;;10492943;28;20398;-75
2023/09/08 17:43:33;;;;;;;10.80;7.33;;;27.90;91.70;;;;;;10478778;28;20779;-74
2023/09/08 17:48:34;;;;;;;10.35;7.53;;;27.70;91.80;;;;;;10486011;28;20423;-75
2023/09/08 17:53:36;;;;;;;8.53;7.60;;;27.60;92.00;;;;;;10487392;28;20482;-75
2023/09/08 17:58:36;;;;;;;10.68;8.45;;;27.50;92.10;;;;;;10493607;28;20407;-74
2023/09/08 18:03:37;;;;;;;9.38;7.90;;;27.50;92.30;;;;;;10489082;28;20948;-75
2023/09/08 18:08:38;;;;;;;8.77;7.30;;;27.40;92.40;;;;;;10487568;28;20398;-74
2023/09/08 18:13:38;;;;;;;10.40;7.63;;;27.30;92.40;;;;;;10488171;28;20400;-75
2023/09/08 18:18:39;;;;;;;8.40;7.20;;;27.20;92.50;;;;;;10487998;28;20429;-74
2023/09/08 18:23:40;;;;;;;8.60;7.22;;;27.00;92.60;;;;;;10485036;28;20418;-74
2023/09/08 18:28:41;;;;;;;8.48;7.68;;;27.00;92.70;;;;;;10484238;28;20398;-71
2023/09/08 18:33:42;;;;;;;10.35;8.55;;;26.80;92.90;;;;;;10486100;28;20453;-70
2023/09/08 18:38:42;;;;;;;9.17;7.63;;;26.70;93.20;;;;;;10488076;28;20400;-70
2023/09/08 18:43:43;;;;;;;9.10;7.70;;;26.70;93.10;;;;;;10487148;28;20409;-68
2023/09/08 18:48:45;;;;;;;9.45;7.97;;;26.80;92.90;;;;;;10483739;28;20799;-69
2023/09/08 18:53:46;;;;;;;11.23;8.65;;;26.90;92.70;;;;;;10487745;28;20420;-69
2023/09/08 18:58:47;;;;;;;10.13;7.90;;;26.90;92.40;;;;;;10485744;28;20891;-69
2023/09/08 19:03:48;;;;;;;8.70;7.80;;;27.00;92.20;;;;;;10488275;28;20417;-69
2023/09/08 19:08:50;;;;;;;8.97;8.00;;;27.10;92.10;;;;;;10488666;28;20783;-69
2023/09/08 19:13:50;;;;;;;8.90;7.83;;;27.10;91.90;;;;;;10482468;28;20411;-69
2023/09/08 19:18:51;;;;;;;9.93;8.60;;;27.00;91.80;;;;;;10482474;28;20401;-69
2023/09/08 19:23:51;;;;;;;9.85;8.35;;;27.00;91.70;;;;;;10476215;28;20418;-68
2023/09/08 19:28:52;;;;;;;9.03;8.13;;;27.10;91.60;;;;;;10480041;28;20416;-68
2023/09/08 19:33:53;;;;;;;9.10;8.20;;;27.00;91.80;;;;;;10489793;28;20418;-68
2023/09/08 19:38:53;;;;;;;8.97;8.07;;;27.00;91.50;;;;;;10483714;28;20429;-68
2023/09/08 19:43:54;;;;;;;9.07;8.23;;;27.00;91.50;;;;;;10492158;28;20464;-69
2023/09/08 19:48:54;;;;;;;9.57;8.57;;;27.00;91.40;;;;;;10493355;28;20394;-68
2023/09/08 19:53:55;;;;;;;8.97;8.07;;;27.00;91.40;;;;;;10493322;28;20408;-69
2023/09/08 19:58:56;;;;;;;9.43;8.43;;;26.90;91.30;;;;;;10495792;28;20403;-68
2023/09/08 20:04:00;;;;;;;11.07;8.80;;;26.90;91.30;;;;;;10489492;28;20446;-68
2023/09/08 20:09:01;;;;;;;9.40;8.50;;;26.90;91.30;;;;;;10493699;28;20422;-68
2023/09/08 20:14:02;;;;;;;10.03;8.97;;;26.90;91.30;;;;;;10488882;28;20437;-68
2023/09/08 20:19:03;;;;;;;10.00;9.00;;;26.80;91.20;;;;;;10494922;28;20897;-68
2023/09/08 20:24:06;;;;;;;10.25;9.20;;;26.80;91.20;;;;;;10492782;28;20411;-69
2023/09/08 20:29:06;;;;;;;9.95;8.95;;;26.80;91.20;;;;;;10495600;28;20417;-68
2023/09/08 20:34:07;;;;;;;11.57;9.30;;;26.80;91.20;;;;;;10489436;28;20408;-69
2023/09/08 20:39:08;;;;;;;10.33;9.30;;;26.70;91.20;;;;;;10486272;28;20471;-68
2023/09/08 20:44:09;;;;;;;10.13;9.10;;;26.70;91.20;;;;;;10494322;28;20438;-68
2023/09/08 20:49:09;;;;;;;11.00;9.70;;;26.70;91.20;;;;;;10490011;28;20448;-69
2023/09/08 20:54:10;;;;;;;10.50;9.40;;;26.60;91.20;;;;;;10487556;28;20407;-68
2023/09/08 20:59:10;;;;;;;10.50;9.20;;;26.60;91.10;;;;;;10489136;28;20436;-68
2023/09/08 21:04:11;;;;;;;10.65;9.55;;;26.60;91.20;;;;;;10489922;28;20926;-68
2023/09/08 21:09:13;;;;;;;10.98;9.88;;;26.50;91.10;;;;;;10492193;28;20433;-68
2023/09/08 21:14:13;;;;;;;10.35;9.35;;;26.50;91.10;;;;;;10487465;28;20429;-69
2023/09/08 21:19:14;;;;;;;10.80;9.70;;;26.50;91.10;;;;;;10494748;28;20993;-68
2023/09/08 21:24:15;;;;;;;11.65;9.88;;;26.40;91.10;;;;;;10492760;28;20410;-69
2023/09/08 21:29:15;;;;;;;11.67;10.47;;;26.40;91.10;;;;;;10491556;28;21554;-69
2023/09/08 21:34:22;;;;;;;10.67;9.57;;;26.40;91.10;;;;;;10487028;28;20423;-68
2023/09/08 21:39:23;;;;;;;12.13;10.53;;;26.30;91.10;;;;;;10496486;28;20510;-67
2023/09/08 21:44:23;;;;;;;12.80;10.47;;;26.30;91.20;;;;;;10491508;28;20906;-68
2023/09/08 21:49:24;;;;;;;11.60;10.40;;;26.20;91.20;;;;;;10494387;28;20407;-67
2023/09/08 21:54:25;;;;;;;12.43;11.13;;;26.20;91.20;;;;;;10491165;28;20484;-68
2023/09/08 21:59:26;;;;;;;12.00;10.80;;;26.20;91.20;;;;;;10502019;28;20398;-68
2023/09/08 22:04:27;;;;;;;12.32;11.00;;;26.90;91.40;;;;;;10495750;28;20415;-68
2023/09/08 22:09:27;;;;;;;12.10;10.80;;;26.10;91.20;;;;;;10499622;28;20816;-67
2023/09/08 22:14:30;;;;;;;13.13;11.50;;;26.10;91.20;;;;;;10490716;28;20407;-66
2023/09/08 22:19:31;;;;;;;12.77;11.35;;;26.10;91.20;;;;;;10487152;28;20399;-67
2023/09/08 22:24:31;;;;;;;12.68;11.38;;;26.00;91.10;;;;;;10482278;28;20403;-68
2023/09/08 22:29:32;;;;;;;12.33;11.13;;;26.00;91.10;;;;;;10490058;28;20939;-68
2023/09/08 22:34:33;;;;;;;13.10;11.70;;;26.00;91.20;;;;;;10485247;28;20404;-68
2023/09/08 22:39:33;;;;;;;13.10;11.70;;;25.90;91.20;;;;;;10488333;28;20407;-67
2023/09/08 22:44:34;;;;;;;12.63;11.32;;;25.90;91.20;;;;;;10490184;28;20445;-67
2023/09/08 22:49:35;;;;;;;15.27;12.60;;;25.90;91.20;;;;;;10485036;28;20884;-67
2023/09/08 22:54:35;;;;;;;13.53;12.10;;;25.80;91.10;;;;;;10485594;28;20416;-67
2023/09/08 22:59:36;;;;;;;13.03;11.73;;;25.80;91.10;;;;;;10485535;28;20418;-68
2023/09/08 23:04:37;;;;;;;13.60;12.20;;;25.80;91.10;;;;;;10493088;28;20475;-68
2023/09/08 23:09:37;;;;;;;13.90;11.90;;;25.80;91.20;;;;;;10491489;28;20758;-67
2023/09/08 23:14:38;;;;;;;13.53;11.83;;;25.70;91.10;;;;;;10485088;28;20412;-68
2023/09/08 23:19:39;;;;;;;12.43;11.13;;;25.70;91.10;;;;;;10481963;28;20937;-68
2023/09/08 23:24:39;;;;;;;12.43;11.13;;;25.70;91.10;;;;;;10479024;28;20412;-67
2023/09/08 23:29:40;;;;;;;13.20;11.80;;;25.60;91.40;;;;;;10486976;28;20398;-68
2023/09/08 23:34:41;;;;;;;13.35;11.95;;;25.60;91.10;;;;;;10487886;28;20903;-68
2023/09/08 23:39:42;;;;;;;13.40;11.73;;;25.60;91.10;;;;;;10491214;28;20410;-67
2023/09/08 23:44:42;;;;;;;13.30;11.68;;;25.30;91.00;;;;;;10484199;28;20409;-67
2023/09/08 23:49:43;;;;;;;13.47;11.80;;;25.50;91.10;;;;;;10485401;28;20389;-68
2023/09/08 23:54:43;;;;;;;13.00;11.60;;;25.50;91.10;;;;;;10489169;28;20415;-67
2023/09/08 23:59:46;;;;;;;13.57;11.65;;;25.40;91.10;;;;;;10508831;28;20393;-66
